Weather - Helsinki Query any day in the database

Current weather  

Weather data for a selected day (2006-01-01 -2020-10-30)
Enter date:     <-     scroll days         ->
day curves
Low temperature°C -12.023:50
High temperature°C -7.012:50
Low wind chill°C -17.522:50
Average temperature°C -8.3 
High wind speed (10 min) m/s 5.412:50
Low pressurehPa 1040.023:50
High pressurehPa 1046.012:20
Low R.H% 7814:20
High R.H% 9223:20
High precipitation (1h)mm 0.112:50
Total precipitation of the daymm 0.8 
Day weather data as a table
Date Time Temp
°C
Chill
°C
Pressure
hPA
Wind
m/s
Hum
%
Precip
mm
2016-01-02 23:50:00 -12.0  -16.8  1040.0 2.2 85 -
2016-01-02 23:20:00 -12.0  -15.0  1040.0 1.3 92 -
2016-01-02 22:50:00 -12.0  -17.5  1041.0 2.7 92 -
2016-01-02 22:20:00 -12.0  -15.0  1041.0 1.3 92 -
2016-01-02 21:50:00 -11.0  -15.6  1042.0 2.2 92 -
2016-01-02 21:20:00 -10.0  -14.4  1042.0 2.2 85 -
2016-01-02 20:50:00 -10.0  -15.7  1043.0 3.1 92 -
2016-01-02 20:20:00 -10.0  -15.2  1043.0 2.7 92 -
2016-01-02 19:50:00 -10.0  -15.7  1043.0 3.1 92 -
2016-01-02 19:20:00 -9.0  -14.0  1044.0 2.7 85 -
2016-01-02 18:50:00 -9.0  -14.0  1044.0 2.7 92 -
2016-01-02 18:20:00 -9.0  -14.0  1044.0 2.7 92 -
2016-01-02 17:50:00 -9.0  -14.4  1044.0 3.1 92 -
2016-01-02 17:20:00 -8.0  -12.1  1045.0 2.2 85 -
2016-01-02 16:50:00 -8.0  -10.5  1045.0 1.3 85 -
2016-01-02 16:20:00 -8.0  -12.8  1045.0 2.7 85 -
2016-01-02 15:50:00 -8.0  -10.5  1045.0 1.3 78 -
2016-01-02 15:20:00 -8.0  -12.8  1045.0 2.7 78 -
2016-01-02 14:50:00 -8.0  -14.1  1045.0 4.0 85 -
2016-01-02 14:20:00 -8.0  -14.6  1045.0 4.5 78 -
2016-01-02 13:50:00 -8.0  -14.1  1045.0 4.0 85 -
2016-01-02 13:20:00 -8.0  -14.1  1045.0 4.0 85 -
2016-01-02 12:50:00 -7.0  -14.0  1045.0 5.4 79 0.1
2016-01-02 12:20:00 -7.0  -14.0  1046.0 5.4 85 -
2016-01-02 11:50:00 -7.0  -12.5  1045.0 3.6 85 0.1
2016-01-02 11:20:00 -7.0  -12.0  1045.0 3.1 85 -
2016-01-02 10:50:00 -8.0  -14.1  1045.0 4.0 92 0.1
2016-01-02 10:20:00 -8.0  -14.1  1045.0 4.0 92 -
2016-01-02 09:50:00 -8.0  -14.1  1045.0 4.0 85 -
2016-01-02 09:20:00 -8.0  -14.6  1045.0 4.5 92 -
2016-01-02 08:50:00 -8.0  -14.6  1045.0 4.5 92 0.1
2016-01-02 08:20:00 -8.0  -14.6  1045.0 4.5 92 -
2016-01-02 07:50:00 -8.0  -14.6  1045.0 4.5 92 0.1
2016-01-02 07:20:00 -8.0  -13.8  1045.0 3.6 92 -
2016-01-02 06:50:00 -7.0  -12.0  1045.0 3.1 85 0.1
2016-01-02 06:20:00 -7.0  -11.6  1044.0 2.7 85 -
2016-01-02 05:50:00 -7.0  -11.6  1044.0 2.7 85 -
2016-01-02 05:20:00 -7.0  -9.3  1044.0 1.3 85 -
2016-01-02 04:50:00 -7.0  -9.3  1044.0 1.3 85 0.1
2016-01-02 04:20:00 -7.0  -11.6  1044.0 2.7 85 -
2016-01-02 03:50:00 -7.0  -10.9  1044.0 2.2 85 0.1
2016-01-02 03:20:00 -7.0  -10.9  1044.0 2.2 79 -
2016-01-02 02:50:00 -7.0  -10.9  1044.0 2.2 79 -
2016-01-02 02:20:00 -7.0  -12.9  1043.0 4.0 79 -
2016-01-02 01:50:00 -7.0  -12.9  1043.0 4.0 79 -
2016-01-02 01:20:00 -7.0  -12.9  1043.0 4.0 79 -
2016-01-02 00:50:00 -7.0  -12.5  1043.0 3.6 79 -
2016-01-02 00:20:00 -7.0  -12.9  1043.0 4.0 79 -
Unit conversions: